sensor_id;sensor_type;location;lat;lon;timestamp;P1;durP1;ratioP1;P2;durP2;ratioP2
23402;SDS011;11874;48.228;11.684;2023-08-30T08:19:03;11.73;;;9.00;;
23402;SDS011;11874;48.228;11.684;2023-08-30T08:21:32;13.13;;;9.15;;
23402;SDS011;11874;48.228;11.684;2023-08-30T08:24:01;13.38;;;9.70;;
23402;SDS011;11874;48.228;11.684;2023-08-30T08:26:30;13.63;;;10.07;;
23402;SDS011;11874;48.228;11.684;2023-08-30T08:28:58;15.98;;;10.23;;
23402;SDS011;11874;48.228;11.684;2023-08-30T08:31:27;17.52;;;10.43;;
23402;SDS011;11874;48.228;11.684;2023-08-30T08:34:07;16.60;;;11.10;;
23402;SDS011;11874;48.228;11.684;2023-08-30T08:36:37;14.82;;;10.48;;
23402;SDS011;11874;48.228;11.684;2023-08-30T08:39:06;13.65;;;10.85;;
23402;SDS011;11874;48.228;11.684;2023-08-30T08:41:37;13.88;;;10.60;;
23402;SDS011;11874;48.228;11.684;2023-08-30T08:44:08;13.23;;;10.40;;
23402;SDS011;11874;48.228;11.684;2023-08-30T08:46:43;11.43;;;9.07;;
23402;SDS011;11874;48.228;11.684;2023-08-30T08:49:13;15.68;;;10.15;;
23402;SDS011;11874;48.228;11.684;2023-08-30T08:51:43;13.68;;;10.75;;
23402;SDS011;11874;48.228;11.684;2023-08-30T08:54:12;15.20;;;11.00;;
23402;SDS011;11874;48.228;11.684;2023-08-30T08:56:41;13.13;;;10.10;;
23402;SDS011;11874;48.228;11.684;2023-08-30T14:05:48;5.85;;;4.63;;
23402;SDS011;11874;48.228;11.684;2023-08-30T14:08:17;5.70;;;4.50;;
23402;SDS011;11874;48.228;11.684;2023-08-30T14:10:45;4.75;;;4.05;;
23402;SDS011;11874;48.228;11.684;2023-08-30T14:13:13;5.70;;;4.05;;
23402;SDS011;11874;48.228;11.684;2023-08-30T14:15:42;4.05;;;3.58;;
23402;SDS011;11874;48.228;11.684;2023-08-30T14:18:10;3.70;;;3.40;;
23402;SDS011;11874;48.228;11.684;2023-08-30T14:20:40;3.88;;;3.20;;
23402;SDS011;11874;48.228;11.684;2023-08-30T14:23:10;4.20;;;3.05;;
23402;SDS011;11874;48.228;11.684;2023-08-30T14:25:40;5.47;;;3.58;;
23402;SDS011;11874;48.228;11.684;2023-08-30T14:28:12;4.40;;;3.85;;
23402;SDS011;11874;48.228;11.684;2023-08-30T14:30:41;4.70;;;3.83;;
23402;SDS011;11874;48.228;11.684;2023-08-30T14:33:11;8.38;;;4.43;;
23402;SDS011;11874;48.228;11.684;2023-08-30T14:35:41;6.63;;;3.75;;
23402;SDS011;11874;48.228;11.684;2023-08-30T14:38:11;6.38;;;4.10;;
23402;SDS011;11874;48.228;11.684;2023-08-30T14:40:40;7.53;;;4.65;;
23402;SDS011;11874;48.228;11.684;2023-08-30T14:43:08;4.80;;;3.90;;
23402;SDS011;11874;48.228;11.684;2023-08-30T14:45:36;5.68;;;4.45;;
23402;SDS011;11874;48.228;11.684;2023-08-30T16:39:34;5.45;;;3.00;;
23402;SDS011;11874;48.228;11.684;2023-08-30T16:42:02;3.33;;;2.83;;
23402;SDS011;11874;48.228;11.684;2023-08-30T16:44:31;3.83;;;3.15;;
23402;SDS011;11874;48.228;11.684;2023-08-30T16:46:59;3.72;;;2.80;;
23402;SDS011;11874;48.228;11.684;2023-08-30T16:49:28;3.28;;;2.97;;
23402;SDS011;11874;48.228;11.684;2023-08-30T16:51:57;3.13;;;2.70;;
23402;SDS011;11874;48.228;11.684;2023-08-30T16:54:25;3.42;;;2.78;;
23402;SDS011;11874;48.228;11.684;2023-08-30T16:56:55;4.25;;;2.78;;
23402;SDS011;11874;48.228;11.684;2023-08-30T16:59:23;2.63;;;2.42;;
23402;SDS011;11874;48.228;11.684;2023-08-30T17:01:52;3.30;;;2.95;;
23402;SDS011;11874;48.228;11.684;2023-08-30T17:04:20;3.63;;;2.45;;
23402;SDS011;11874;48.228;11.684;2023-08-30T17:06:48;2.88;;;2.58;;
23402;SDS011;11874;48.228;11.684;2023-08-30T17:09:18;3.30;;;2.10;;
23402;SDS011;11874;48.228;11.684;2023-08-30T17:11:46;3.55;;;2.60;;
23402;SDS011;11874;48.228;11.684;2023-08-30T17:14:16;3.30;;;2.58;;
23402;SDS011;11874;48.228;11.684;2023-08-30T17:16:44;2.55;;;2.35;;
23402;SDS011;11874;48.228;11.684;2023-08-30T17:19:13;3.75;;;2.30;;
23402;SDS011;11874;48.228;11.684;2023-08-30T17:21:41;2.40;;;2.20;;
23402;SDS011;11874;48.228;11.684;2023-08-30T17:24:10;2.20;;;1.95;;
23402;SDS011;11874;48.228;11.684;2023-08-30T17:26:38;2.20;;;2.00;;
23402;SDS011;11874;48.228;11.684;2023-08-30T17:29:07;2.60;;;2.05;;
23402;SDS011;11874;48.228;11.684;2023-08-30T17:31:39;4.63;;;2.20;;
23402;SDS011;11874;48.228;11.684;2023-08-30T17:34:07;3.70;;;2.17;;
23402;SDS011;11874;48.228;11.684;2023-08-30T17:36:41;3.13;;;2.17;;
23402;SDS011;11874;48.228;11.684;2023-08-30T17:39:13;2.20;;;2.00;;
23402;SDS011;11874;48.228;11.684;2023-08-30T17:41:42;2.25;;;2.00;;
23402;SDS011;11874;48.228;11.684;2023-08-30T17:44:10;2.45;;;1.88;;
23402;SDS011;11874;48.228;11.684;2023-08-30T20:08:41;4.25;;;3.85;;
23402;SDS011;11874;48.228;11.684;2023-08-30T20:11:09;5.80;;;3.63;;
23402;SDS011;11874;48.228;11.684;2023-08-30T20:13:37;4.53;;;3.38;;
23402;SDS011;11874;48.228;11.684;2023-08-30T20:16:06;6.40;;;3.45;;
23402;SDS011;11874;48.228;11.684;2023-08-30T20:18:34;3.75;;;3.45;;
23402;SDS011;11874;48.228;11.684;2023-08-30T20:21:03;4.38;;;3.40;;
23402;SDS011;11874;48.228;11.684;2023-08-30T20:23:38;4.65;;;3.33;;
23402;SDS011;11874;48.228;11.684;2023-08-30T20:26:09;3.53;;;3.08;;
23402;SDS011;11874;48.228;11.684;2023-08-30T20:28:39;4.72;;;3.50;;
23402;SDS011;11874;48.228;11.684;2023-08-30T20:31:08;3.63;;;3.15;;
23402;SDS011;11874;48.228;11.684;2023-08-30T20:33:39;3.58;;;3.17;;
23402;SDS011;11874;48.228;11.684;2023-08-30T20:36:07;3.42;;;2.70;;
23402;SDS011;11874;48.228;11.684;2023-08-30T20:38:36;3.53;;;2.85;;
23402;SDS011;11874;48.228;11.684;2023-08-30T20:41:05;2.85;;;2.45;;
23402;SDS011;11874;48.228;11.684;2023-08-30T20:43:35;5.22;;;3.10;;
23402;SDS011;11874;48.228;11.684;2023-08-30T20:46:03;3.08;;;2.45;;
23402;SDS011;11874;48.228;11.684;2023-08-30T20:48:32;2.85;;;2.58;;
23402;SDS011;11874;48.228;11.684;2023-08-30T20:51:00;4.45;;;2.78;;
23402;SDS011;11874;48.228;11.684;2023-08-30T20:53:32;3.08;;;2.78;;
23402;SDS011;11874;48.228;11.684;2023-08-30T20:56:02;4.82;;;3.00;;
23402;SDS011;11874;48.228;11.684;2023-08-30T20:58:32;2.58;;;2.28;;
23402;SDS011;11874;48.228;11.684;2023-08-30T21:01:07;3.25;;;2.83;;
23402;SDS011;11874;48.228;11.684;2023-08-30T21:03:36;2.65;;;2.45;;
23402;SDS011;11874;48.228;11.684;2023-08-30T21:06:05;4.10;;;2.35;;
23402;SDS011;11874;48.228;11.684;2023-08-30T21:08:34;2.67;;;2.47;;
23402;SDS011;11874;48.228;11.684;2023-08-30T21:11:05;2.60;;;2.40;;
23402;SDS011;11874;48.228;11.684;2023-08-30T21:13:35;2.55;;;2.35;;
